Time;durP1;ratioP1;P1;durP2;ratioP2;P2;SDS_P1;SDS_P2;PMS_P1;PMS_P2;Temp;Humidity;BMP_temperature;BMP_pressure;BME280_temperature;BME280_humidity;BME280_pressure;Samples;Min_cycle;Max_cycle;Signal;HPM_P1;HPM_P2
2024/02/14 00:01:14;;;;;;;3.25;2.20;;;;;;;7.69;100.00;100039.19;4990371;28;20112;-71
2024/02/14 00:03:40;;;;;;;3.38;2.28;;;;;;;7.68;100.00;100040.88;4989987;28;20067;-74
2024/02/14 00:06:06;;;;;;;4.60;2.17;;;;;;;7.49;100.00;100018.69;4990934;28;20030;-70
2024/02/14 00:08:32;;;;;;;4.07;2.53;;;;;;;7.57;100.00;100032.72;4990147;28;20077;-76
2024/02/14 00:10:57;;;;;;;3.72;2.55;;;;;;;7.64;100.00;100043.25;4978758;28;20077;-70
2024/02/14 00:13:23;;;;;;;4.25;2.60;;;;;;;7.48;100.00;100027.22;4990569;28;20018;-70
2024/02/14 00:15:48;;;;;;;4.97;2.55;;;;;;;7.27;100.00;99988.66;4989780;28;20034;-70
2024/02/14 00:18:15;;;;;;;3.88;2.60;;;;;;;7.60;100.00;100057.66;4989827;28;20034;-71
2024/02/14 00:20:41;;;;;;;4.03;2.72;;;;;;;7.22;100.00;99998.72;4990983;28;20050;-72
2024/02/14 00:23:06;;;;;;;4.20;2.65;;;;;;;7.06;100.00;99965.53;4989995;28;20414;-75
2024/02/14 00:25:32;;;;;;;3.55;2.60;;;;;;;7.60;100.00;100062.81;4990150;28;20038;-72
2024/02/14 00:28:00;;;;;;;3.65;2.55;;;;;;;7.52;100.00;100049.63;4989849;28;20038;-72
2024/02/14 00:30:26;;;;;;;4.60;2.60;;;;;;;7.59;100.00;100051.66;4989985;28;20387;-71
2024/02/14 00:32:52;;;;;;;3.85;2.70;;;;;;;7.60;100.00;100058.56;4990317;28;20027;-70
2024/02/14 00:35:17;;;;;;;3.90;2.78;;;;;;;7.65;100.00;100068.13;4989802;28;20076;-71
2024/02/14 00:37:43;;;;;;;3.53;2.63;;;;;;;7.70;100.00;100069.22;4989895;28;20038;-73
2024/02/14 00:40:09;;;;;;;3.55;2.65;;;;;;;7.63;100.00;100062.06;4980767;28;20073;-70
2024/02/14 00:42:34;;;;;;;4.63;2.83;;;;;;;7.66;100.00;100060.50;4990806;28;20042;-70
2024/02/14 00:45:00;;;;;;;4.47;3.00;;;;;;;7.66;100.00;100044.22;4989625;28;20035;-71
2024/02/14 00:47:25;;;;;;;4.43;2.80;;;;;;;7.75;100.00;100062.56;4990330;28;20030;-70
2024/02/14 00:49:51;;;;;;;3.97;2.33;;;;;;;7.44;100.00;100002.22;4989265;28;20027;-71
2024/02/14 00:52:17;;;;;;;3.90;2.72;;;;;;;7.91;100.00;100072.69;4989536;28;20035;-71
2024/02/14 00:54:43;;;;;;;4.03;2.70;;;;;;;7.97;100.00;100068.59;4989984;28;20493;-70
2024/02/14 00:57:08;;;;;;;4.13;2.95;;;;;;;7.98;100.00;100081.50;4989609;28;20123;-70
2024/02/14 00:59:34;;;;;;;4.18;2.83;;;;;;;8.03;100.00;100074.00;4978561;28;20026;-77
2024/02/14 01:01:59;;;;;;;4.10;2.88;;;;;;;7.98;100.00;100075.50;4989850;28;20411;-71
2024/02/14 01:04:25;;;;;;;5.30;3.17;;;;;;;7.36;100.00;99985.59;4989722;28;20037;-70
2024/02/14 01:06:51;;;;;;;3.58;2.42;;;;;;;7.82;100.00;100074.88;5007042;28;20033;-76
2024/02/14 01:09:18;;;;;;;4.20;2.80;;;;;;;7.80;100.00;100073.94;4989602;28;20031;-69
2024/02/14 01:11:44;;;;;;;4.13;2.67;;;;;;;7.35;100.00;99994.13;4993150;28;20413;-71
2024/02/14 01:14:09;;;;;;;4.13;2.95;;;;;;;7.85;100.00;100079.25;4993718;28;20034;-71
2024/02/14 01:16:42;;;;;;;3.72;2.72;;;;;;;7.84;100.00;100077.47;4994154;28;20026;-71
2024/02/14 01:19:08;;;;;;;3.80;2.80;;;;;;;7.76;100.00;100057.50;4993646;28;20100;-71
2024/02/14 01:21:33;;;;;;;3.67;2.60;;;;;;;7.80;100.00;100067.91;4993282;28;20481;-71
2024/02/14 01:23:59;;;;;;;3.65;2.42;;;;;;;7.78;100.00;100067.84;4993276;28;20072;-70
2024/02/14 01:26:24;;;;;;;4.32;2.70;;;;;;;7.94;100.00;100079.66;4993818;28;20033;-71
2024/02/14 01:28:50;;;;;;;3.67;2.55;;;;;;;8.00;100.00;100084.13;4993037;28;20049;-71
2024/02/14 01:31:15;;;;;;;3.58;2.50;;;;;;;8.04;100.00;100081.78;4993126;28;20026;-71
2024/02/14 01:33:41;;;;;;;6.15;2.47;;;;;;;8.09;100.00;100084.53;4993057;28;20062;-71
2024/02/14 01:36:06;;;;;;;3.63;2.55;;;;;;;8.02;100.00;100065.41;4993704;28;20014;-71
2024/02/14 01:38:35;;;;;;;3.58;2.50;;;;;;;8.13;100.00;100085.53;4992779;28;20395;-70
2024/02/14 01:41:02;;;;;;;4.32;2.65;;;;;;;8.15;100.00;100095.06;4992693;28;20026;-73
2024/02/14 01:43:29;;;;;;;4.13;2.60;;;;;;;7.87;100.00;100045.09;4992785;28;20033;-72
2024/02/14 01:45:57;;;;;;;3.50;2.63;;;;;;;8.19;100.00;100090.94;4993251;28;20093;-71
2024/02/14 01:48:23;;;;;;;3.50;2.63;;;;;;;8.11;100.00;100080.31;4992961;28;20383;-70
2024/02/14 01:50:48;;;;;;;3.67;2.55;;;;;;;8.22;100.00;100098.75;4992803;28;20030;-70
2024/02/14 01:53:14;;;;;;;4.25;2.53;;;;;;;8.15;100.00;100089.03;4992926;28;20071;-69
2024/02/14 01:55:40;;;;;;;4.13;2.70;;;;;;;7.78;100.00;100031.88;4992527;28;20109;-71
2024/02/14 01:58:06;;;;;;;3.60;2.50;;;;;;;7.82;100.00;100058.56;4992801;28;20149;-72
2024/02/14 02:00:34;;;;;;;3.72;2.55;;;;;;;7.97;100.00;100089.16;4981353;28;20136;-74
2024/02/14 02:03:00;;;;;;;4.43;3.00;;;;;;;7.54;100.00;100014.63;4978372;28;20065;-70
2024/02/14 02:05:25;;;;;;;3.55;2.70;;;;;;;8.06;100.00;100089.53;4992712;28;20101;-74
2024/02/14 02:07:51;;;;;;;2.92;2.40;;;;;;;7.98;100.00;100081.50;4992334;28;20058;-70
2024/02/14 02:10:17;;;;;;;4.47;3.03;;;;;;;7.96;100.00;100092.56;4992237;28;20030;-71
2024/02/14 02:12:43;;;;;;;4.28;2.72;;;;;;;7.84;100.00;100074.91;4992289;28;20052;-71
2024/02/14 02:15:12;;;;;;;3.72;2.72;;;;;;;7.67;100.00;100030.56;4992150;28;20077;-70
2024/02/14 02:17:39;;;;;;;4.40;2.90;;;;;;;7.67;100.00;100021.13;4989037;28;20026;-72
2024/02/14 02:20:07;;;;;;;3.78;2.85;;;;;;;8.08;100.00;100104.22;4992078;28;20121;-70
2024/02/14 02:22:35;;;;;;;3.72;2.72;;;;;;;8.04;100.00;100106.63;4991535;28;20077;-70
2024/02/14 02:25:01;;;;;;;3.47;2.67;;;;;;;7.91;100.00;100110.34;4992243;28;20556;-71
2024/02/14 02:27:28;;;;;;;3.83;2.80;;;;;;;7.90;100.00;100113.72;4991940;28;20398;-72
2024/02/14 02:29:54;;;;;;;4.22;2.88;;;;;;;8.01;100.00;100112.50;4991946;28;20551;-70
2024/02/14 02:32:19;;;;;;;3.58;2.72;;;;;;;8.08;100.00;100123.91;4992494;28;20026;-71
2024/02/14 02:34:45;;;;;;;3.70;2.88;;;;;;;8.12;100.00;100128.34;4991703;28;20034;-71
2024/02/14 02:37:11;;;;;;;3.33;2.50;;;;;;;7.72;100.00;100055.59;4979393;28;20486;-71
2024/02/14 02:39:37;;;;;;;4.18;2.63;;;;;;;8.24;100.00;100133.13;4991975;28;20130;-71
2024/02/14 02:42:03;;;;;;;3.35;2.53;;;;;;;8.16;100.00;100122.53;4992032;28;20132;-70
2024/02/14 02:44:29;;;;;;;3.55;2.53;;;;;;;8.23;100.00;100137.38;4992280;28;20034;-75
2024/02/14 02:46:55;;;;;;;3.33;2.47;;;;;;;7.94;100.00;100095.94;4991569;28;20497;-72
2024/02/14 02:49:21;;;;;;;3.20;2.40;;;;;;;8.12;100.00;100133.50;4988039;28;20375;-71
2024/02/14 02:51:47;;;;;;;4.20;2.35;;;;;;;8.06;100.00;100134.13;4991721;28;20037;-73
2024/02/14 02:54:13;;;;;;;3.35;2.42;;;;;;;7.99;100.00;100133.78;4991589;28;20030;-70
2024/02/14 02:56:40;;;;;;;3.80;2.78;;;;;;;8.01;100.00;100137.31;4991625;28;20034;-71
2024/02/14 02:59:06;;;;;;;3.25;2.40;;;;;;;7.63;100.00;100090.31;4990795;28;20045;-70
2024/02/14 03:01:36;;;;;;;4.10;2.75;;;;;;;7.97;100.00;100136.31;4991378;28;20030;-70
2024/02/14 03:04:02;;;;;;;3.55;2.42;;;;;;;7.83;100.00;100143.44;4991582;28;20030;-71
2024/02/14 03:06:28;;;;;;;4.82;3.25;;;;;;;7.69;100.00;100111.13;4992204;28;20030;-71
2024/02/14 03:08:55;;;;;;;4.13;2.70;;;;;;;7.64;100.00;100125.47;4973000;28;20083;-70
2024/02/14 03:11:22;;;;;;;5.63;2.92;;;;;;;7.43;100.00;100105.75;4974271;28;20047;-71
2024/02/14 03:13:48;;;;;;;4.85;2.83;;;;;;;7.63;100.00;100132.31;4982783;28;20126;-72
2024/02/14 03:16:15;;;;;;;4.07;2.70;;;;;;;7.75;100.00;100155.06;4984697;28;20038;-70
2024/02/14 03:18:40;;;;;;;4.93;2.40;;;;;;;7.43;100.00;100088.66;4977670;28;20418;-71
2024/02/14 03:21:06;;;;;;;3.65;2.30;;;;;;;7.78;100.00;100156.09;4977024;28;20050;-71
2024/02/14 03:23:32;;;;;;;3.70;2.60;;;;;;;7.79;100.00;100156.97;4945204;28;20073;-70
2024/02/14 03:25:57;;;;;;;3.28;2.33;;;;;;;7.73;100.00;100141.31;4976360;28;20042;-70
2024/02/14 03:28:23;;;;;;;3.55;2.60;;;;;;;7.86;100.00;100161.56;4977699;28;20039;-71
2024/02/14 03:30:49;;;;;;;4.65;3.05;;;;;;;7.89;100.00;100158.25;4957219;28;20046;-71
2024/02/14 03:33:14;;;;;;;3.78;2.70;;;;;;;7.93;100.00;100178.13;4979060;28;20047;-71
2024/02/14 03:35:41;;;;;;;3.55;2.50;;;;;;;7.94;100.00;100178.19;4980813;28;20046;-70
2024/02/14 03:38:08;;;;;;;3.45;2.28;;;;;;;8.01;100.00;100168.16;4974447;28;20055;-71
2024/02/14 03:40:37;;;;;;;3.38;2.40;;;;;;;8.00;100.00;100169.88;4976231;28;20039;-70
2024/02/14 03:43:02;;;;;;;3.70;2.33;;;;;;;7.83;100.00;100152.84;4978226;28;20038;-70
2024/02/14 03:45:29;;;;;;;3.58;2.25;;;;;;;7.53;100.00;100122.47;4982959;28;20108;-70
2024/02/14 03:47:56;;;;;;;3.75;2.40;;;;;;;7.76;100.00;100178.28;4991626;28;20113;-74
2024/02/14 03:50:22;;;;;;;2.75;2.38;;;;;;;7.71;100.00;100171.19;4990306;28;20110;-69
2024/02/14 03:52:48;;;;;;;4.32;2.80;;;;;;;7.71;100.00;100172.06;4990514;28;20031;-69
2024/02/14 03:55:17;;;;;;;3.45;2.53;;;;;;;7.55;100.00;100160.25;4990579;28;20038;-70
2024/02/14 03:57:45;;;;;;;3.63;2.45;;;;;;;7.60;100.00;100173.25;4993221;28;20112;-71
2024/02/14 04:00:11;;;;;;;4.22;2.65;;;;;;;7.60;100.00;100176.72;4990480;28;20486;-70
2024/02/14 04:02:36;;;;;;;3.42;2.50;;;;;;;7.57;100.00;100175.72;4990732;28;20033;-70
2024/02/14 04:05:02;;;;;;;3.83;2.78;;;;;;;7.58;100.00;100174.91;4989949;28;20406;-74
2024/02/14 04:07:29;;;;;;;4.03;2.70;;;;;;;7.58;100.00;100180.03;4990178;28;20034;-72
2024/02/14 04:09:55;;;;;;;5.25;3.15;;;;;;;7.64;100.00;100176.84;4990443;28;20030;-69
2024/02/14 04:12:21;;;;;;;4.40;2.60;;;;;;;7.69;100.00;100189.09;4990037;28;20049;-69
2024/02/14 04:14:47;;;;;;;6.72;2.90;;;;;;;7.63;100.00;100163.16;4990410;28;20498;-69
2024/02/14 04:17:13;;;;;;;4.35;3.20;;;;;;;7.79;100.00;100190.38;4990389;28;20129;-69
2024/02/14 04:19:39;;;;;;;3.75;2.60;;;;;;;7.85;100.00;100184.63;4990615;28;20104;-74
2024/02/14 04:22:05;;;;;;;4.85;2.20;;;;;;;7.85;100.00;100175.25;4990694;28;20035;-76
2024/02/14 04:24:34;;;;;;;7.75;2.72;;;;;;;8.07;100.00;100199.28;4989863;28;20030;-70
2024/02/14 04:27:02;;;;;;;4.32;3.00;;;;;;;8.14;100.00;100201.31;4990578;28;20038;-69
2024/02/14 04:29:32;;;;;;;4.00;2.35;;;;;;;8.22;100.00;100209.34;4990593;28;20034;-69
2024/02/14 04:32:02;;;;;;;3.90;2.40;;;;;;;8.28;100.00;100211.31;4989979;28;20390;-69
2024/02/14 04:34:27;;;;;;;3.60;2.47;;;;;;;8.32;100.00;100202.88;4987595;28;20037;-69
2024/02/14 04:36:53;;;;;;;4.18;2.83;;;;;;;8.30;100.00;100207.06;4990316;28;20038;-70
2024/02/14 04:39:19;;;;;;;7.60;3.13;;;;;;;8.41;100.00;100210.97;4990405;28;20037;-68
2024/02/14 04:41:44;;;;;;;5.43;2.53;;;;;;;8.48;100.00;100218.16;4990481;28;20045;-70
2024/02/14 04:44:10;;;;;;;5.55;2.70;;;;;;;8.53;100.00;100218.38;4978529;28;20070;-70
2024/02/14 04:46:37;;;;;;;3.75;2.80;;;;;;;8.58;100.00;100222.91;4989326;28;20113;-70
2024/02/14 04:49:03;;;;;;;4.10;2.60;;;;;;;8.63;100.00;100217.06;4990171;28;20081;-70
2024/02/14 04:51:30;;;;;;;3.92;2.65;;;;;;;8.67;100.00;100218.94;4989969;28;20041;-69
2024/02/14 04:53:58;;;;;;;4.43;2.10;;;;;;;8.64;100.00;100211.09;4990115;28;20038;-68
2024/02/14 04:56:25;;;;;;;5.97;2.30;;;;;;;8.71;100.00;100225.94;4990076;28;20030;-70
2024/02/14 04:58:52;;;;;;;5.43;2.47;;;;;;;8.66;100.00;100222.31;4989346;28;20034;-70
2024/02/14 05:01:18;;;;;;;5.35;2.70;;;;;;;8.16;100.00;100152.50;4960391;28;20034;-71
2024/02/14 05:03:44;;;;;;;3.20;2.33;;;;;;;8.58;100.00;100248.63;4996148;28;20133;-72
2024/02/14 05:06:09;;;;;;;4.00;2.50;;;;;;;8.57;100.00;100249.44;4990231;28;20595;-70
2024/02/14 05:08:35;;;;;;;6.07;2.80;;;;;;;8.17;100.00;100183.41;4990526;28;20117;-70
2024/02/14 05:11:00;;;;;;;5.18;2.55;;;;;;;8.64;100.00;100257.41;4989653;28;20129;-71
2024/02/14 05:13:26;;;;;;;4.45;2.50;;;;;;;8.64;100.00;100257.41;4989960;28;20061;-70
2024/02/14 05:15:51;;;;;;;3.25;2.30;;;;;;;8.63;100.00;100259.09;4989484;28;20030;-71
2024/02/14 05:18:17;;;;;;;4.82;2.88;;;;;;;8.16;100.00;100191.97;4985678;28;20113;-70
2024/02/14 05:20:42;;;;;;;6.38;2.63;;;;;;;8.39;100.00;100238.34;4988273;28;20038;-70
2024/02/14 05:23:09;;;;;;;5.75;2.47;;;;;;;8.44;100.00;100272.84;4989435;28;20049;-70
2024/02/14 05:25:34;;;;;;;5.75;2.80;;;;;;;8.41;100.00;100276.19;4989369;28;20066;-72
2024/02/14 05:28:00;;;;;;;3.45;2.33;;;;;;;8.34;100.00;100281.88;4989745;28;20034;-69
2024/02/14 05:30:26;;;;;;;5.50;3.03;;;;;;;8.05;100.00;100250.63;4988451;28;20509;-69
2024/02/14 05:32:55;;;;;;;7.05;3.45;;;;;;;8.25;100.00;100291.78;4990055;28;20026;-71
2024/02/14 05:35:21;;;;;;;8.10;3.90;;;;;;;8.22;100.00;100292.53;4989173;28;20663;-70
2024/02/14 05:37:49;;;;;;;8.50;4.20;;;;;;;7.85;100.00;100239.50;4989303;28;20077;-69
2024/02/14 05:40:15;;;;;;;8.20;3.97;;;;;;;7.76;100.00;100219.41;4989290;28;20036;-74
2024/02/14 05:42:41;;;;;;;6.80;3.70;;;;;;;8.03;100.00;100284.81;4989896;28;20046;-69
2024/02/14 05:45:09;;;;;;;8.18;4.05;;;;;;;8.07;100.00;100294.41;4989130;28;20077;-72
2024/02/14 05:47:35;;;;;;;6.22;4.15;;;;;;;7.98;100.00;100297.44;4986923;28;20077;-70
2024/02/14 05:50:01;;;;;;;6.10;3.28;;;;;;;7.80;100.00;100269.25;4976757;28;20058;-73
2024/02/14 05:52:26;;;;;;;6.22;3.22;;;;;;;8.05;100.00;100314.03;4986983;28;20085;-71
2024/02/14 05:54:52;;;;;;;8.60;5.57;;;;;;;8.00;100.00;100320.66;4987221;28;20044;-70
2024/02/14 05:57:17;;;;;;;10.65;7.47;;;;;;;7.51;100.00;100239.66;4978152;28;20112;-69
2024/02/14 05:59:43;;;;;;;9.45;6.68;;;;;;;8.07;100.00;100339.00;4993002;28;20113;-69
2024/02/14 06:02:09;;;;;;;5.60;3.90;;;;;;;7.75;100.00;100274.19;4993976;28;20506;-68
2024/02/14 06:04:35;;;;;;;6.40;3.97;;;;;;;8.15;100.00;100341.91;4990783;28;20050;-69
2024/02/14 06:07:02;;;;;;;6.03;2.88;;;;;;;8.15;100.00;100347.06;4991983;28;20031;-70
2024/02/14 06:09:28;;;;;;;5.88;3.05;;;;;;;8.19;100.00;100346.38;4986023;28;20048;-69
2024/02/14 06:11:53;;;;;;;5.50;2.60;;;;;;;8.19;100.00;100358.38;4992928;28;20479;-74
2024/02/14 06:14:19;;;;;;;6.07;3.17;;;;;;;8.22;100.00;100348.22;4992925;28;20038;-70
2024/02/14 06:16:44;;;;;;;5.57;2.47;;;;;;;8.12;100.00;100344.34;4991400;28;20161;-70
2024/02/14 06:19:11;;;;;;;5.40;3.00;;;;;;;8.09;100.00;100346.78;4992627;28;20046;-69
2024/02/14 06:21:36;;;;;;;4.13;3.10;;;;;;;8.06;100.00;100347.53;4992589;28;20125;-71
2024/02/14 06:24:05;;;;;;;4.68;3.10;;;;;;;7.91;100.00;100342.59;4992572;28;20409;-69
2024/02/14 06:26:31;;;;;;;4.82;3.30;;;;;;;7.92;100.00;100359.78;4991509;28;20050;-70
2024/02/14 06:28:57;;;;;;;4.32;2.80;;;;;;;7.93;100.00;100356.34;4991966;28;20037;-70
2024/02/14 06:31:22;;;;;;;4.15;2.85;;;;;;;7.77;100.00;100335.91;4992196;28;20030;-71
2024/02/14 06:33:48;;;;;;;4.60;3.20;;;;;;;7.52;100.00;100291.09;4983079;28;20109;-71
2024/02/14 06:36:13;;;;;;;6.20;3.67;;;;;;;7.98;100.00;100366.88;4992430;28;20065;-70
2024/02/14 06:38:39;;;;;;;6.28;4.30;;;;;;;7.81;100.00;100344.66;4992356;28;20475;-70
2024/02/14 06:41:05;;;;;;;5.25;3.60;;;;;;;7.86;100.00;100362.06;4991908;28;20038;-70
2024/02/14 06:43:31;;;;;;;7.05;4.13;;;;;;;7.85;100.00;100362.88;4992272;28;20653;-68
2024/02/14 06:45:57;;;;;;;8.30;5.00;;;;;;;7.84;100.00;100370.47;4992454;28;20438;-69
2024/02/14 06:48:23;;;;;;;5.75;3.65;;;;;;;7.63;100.00;100347.22;4993183;28;20030;-71
2024/02/14 06:50:50;;;;;;;7.10;3.47;;;;;;;7.75;100.00;100365.78;4991796;28;20038;-70
2024/02/14 06:53:15;;;;;;;4.72;3.42;;;;;;;7.76;100.00;100365.00;4991540;28;20023;-70
2024/02/14 06:55:41;;;;;;;7.18;3.50;;;;;;;7.83;100.00;100369.59;4991249;28;20041;-71
2024/02/14 06:58:06;;;;;;;7.68;3.08;;;;;;;7.71;100.00;100345.91;4992421;28;20030;-70
2024/02/14 07:00:33;;;;;;;5.40;3.53;;;;;;;7.87;100.00;100381.78;4991417;28;20030;-70
2024/02/14 07:02:58;;;;;;;5.25;3.42;;;;;;;7.84;100.00;100388.47;4979927;28;20394;-70
2024/02/14 07:05:24;;;;;;;5.05;3.17;;;;;;;7.81;100.00;100381.50;4992031;28;20026;-69
2024/02/14 07:07:50;;;;;;;5.25;3.05;;;;;;;7.75;100.00;100384.69;4991039;28;20042;-69
2024/02/14 07:10:15;;;;;;;5.18;3.22;;;;;;;7.81;100.00;100396.91;4991178;28;20056;-73
2024/02/14 07:12:41;;;;;;;6.82;3.22;;;;;;;7.82;100.00;100388.41;4990892;28;20026;-69
2024/02/14 07:15:08;;;;;;;6.43;3.67;;;;;;;7.91;100.00;100416.22;4989887;28;20133;-68
2024/02/14 07:17:33;;;;;;;5.22;3.50;;;;;;;7.76;100.00;100370.13;4991021;28;20105;-69
2024/02/14 07:19:59;;;;;;;6.90;3.92;;;;;;;8.01;100.00;100408.16;4991580;28;20051;-68
2024/02/14 07:22:24;;;;;;;6.55;3.50;;;;;;;8.07;100.00;100417.81;4991291;28;20490;-68
2024/02/14 07:24:50;;;;;;;6.05;3.58;;;;;;;8.13;100.00;100420.69;4990996;28;20038;-69
2024/02/14 07:27:16;;;;;;;7.15;3.58;;;;;;;8.19;100.00;100413.25;4990918;28;20030;-71
2024/02/14 07:29:42;;;;;;;6.22;3.50;;;;;;;8.16;100.00;100410.53;4991128;28;20402;-69
2024/02/14 07:32:08;;;;;;;5.85;4.22;;;;;;;8.28;100.00;100420.50;4991524;28;20034;-69
2024/02/14 07:34:33;;;;;;;6.88;5.03;;;;;;;8.14;100.00;100394.16;4991414;28;20475;-68
2024/02/14 07:36:59;;;;;;;8.73;5.55;;;;;;;8.13;100.00;100399.25;4991404;28;20027;-69
2024/02/14 07:39:24;;;;;;;4.75;3.22;;;;;;;8.17;100.00;100409.72;4991436;28;20030;-70
2024/02/14 07:41:50;;;;;;;4.88;3.25;;;;;;;8.30;100.00;100434.31;4990951;28;20054;-70
2024/02/14 07:44:16;;;;;;;5.10;3.10;;;;;;;8.33;100.00;100431.00;4991052;28;20113;-69
2024/02/14 07:46:41;;;;;;;3.97;2.55;;;;;;;8.32;100.00;100435.25;4990879;28;20027;-70
2024/02/14 07:49:08;;;;;;;6.25;3.05;;;;;;;7.91;100.00;100370.84;4981189;28;20038;-69
2024/02/14 07:51:36;;;;;;;4.70;3.10;;;;;;;8.04;100.00;100392.84;4990925;28;20027;-69
2024/02/14 07:54:05;;;;;;;4.70;2.97;;;;;;;8.33;100.00;100441.28;4990601;28;20026;-70
2024/02/14 07:56:31;;;;;;;4.80;3.20;;;;;;;8.27;100.00;100434.16;4990919;28;20074;-70
2024/02/14 07:58:58;;;;;;;5.53;3.75;;;;;;;7.93;100.00;100378.63;4991221;28;20053;-71
2024/02/14 08:01:23;;;;;;;5.25;2.40;;;;;;;8.38;100.00;100461.25;4991428;28;20028;-70
2024/02/14 08:03:49;;;;;;;4.95;2.67;;;;;;;8.06;100.00;100398.97;4990666;28;20101;-70
2024/02/14 08:06:14;;;;;;;5.00;3.17;;;;;;;8.41;100.00;100457.94;4990754;28;20023;-70
2024/02/14 08:08:40;;;;;;;6.28;2.78;;;;;;;8.41;100.00;100465.66;4990182;28;20030;-69
2024/02/14 08:11:05;;;;;;;6.35;2.83;;;;;;;8.39;100.00;100464.72;4990316;28;20036;-70
2024/02/14 08:13:32;;;;;;;4.18;2.78;;;;;;;8.32;100.00;100460.97;4990847;28;20026;-69
2024/02/14 08:15:58;;;;;;;5.25;2.83;;;;;;;8.40;100.00;100472.50;4990300;28;20035;-70
2024/02/14 08:18:24;;;;;;;5.55;2.90;;;;;;;8.38;100.00;100453.53;4990524;28;20030;-67
2024/02/14 08:20:50;;;;;;;4.38;2.80;;;;;;;8.52;100.00;100472.22;4989609;28;20064;-70
2024/02/14 08:23:17;;;;;;;4.97;3.15;;;;;;;8.50;100.00;100468.69;4988603;28;20030;-70
2024/02/14 08:25:42;;;;;;;5.43;2.90;;;;;;;8.63;100.00;100479.53;4990050;28;20978;-70
2024/02/14 08:28:10;;;;;;;4.70;2.70;;;;;;;8.55;100.00;100479.19;4990587;28;20034;-69
2024/02/14 08:30:35;;;;;;;4.13;2.40;;;;;;;8.43;100.00;100457.19;4990411;28;20431;-68
2024/02/14 08:33:01;;;;;;;4.65;2.88;;;;;;;8.62;100.00;100488.06;4990280;28;20050;-69
2024/02/14 08:35:26;;;;;;;5.05;2.85;;;;;;;8.57;100.00;100490.44;4990090;28;20046;-70
2024/02/14 08:37:52;;;;;;;3.80;2.60;;;;;;;8.48;100.00;100485.75;4986457;28;20398;-69
2024/02/14 08:40:17;;;;;;;4.30;2.38;;;;;;;8.30;100.00;100466.84;4978970;28;20081;-69
2024/02/14 08:42:43;;;;;;;4.53;2.92;;;;;;;8.45;100.00;100492.41;4988539;28;20865;-70
2024/02/14 08:45:10;;;;;;;5.10;3.40;;;;;;;8.45;100.00;100494.97;4985935;28;20034;-69
2024/02/14 08:47:36;;;;;;;4.40;3.10;;;;;;;8.46;100.00;100497.69;4980768;28;20587;-69
2024/02/14 08:50:03;;;;;;;3.72;2.50;;;;;;;8.39;100.00;100490.44;4971459;28;20027;-70
2024/02/14 08:52:29;;;;;;;3.67;2.42;;;;;;;8.55;100.00;100507.50;4986465;28;20045;-71
2024/02/14 08:54:54;;;;;;;4.25;2.17;;;;;;;8.33;100.00;100467.00;4989538;28;20035;-70
2024/02/14 08:57:20;;;;;;;2.08;1.40;;;;;;;8.53;100.00;100507.41;4989961;28;20034;-69
2024/02/14 08:59:48;;;;;;;4.45;1.90;;;;;;;8.50;100.00;100497.00;4986275;28;20487;-69
2024/02/14 09:02:14;;;;;;;2.08;1.48;;;;;;;8.48;100.00;100490.88;4989520;28;20030;-68
2024/02/14 09:04:44;;;;;;;1.33;1.20;;;;;;;8.60;100.00;100515.41;4989868;28;20081;-68
2024/02/14 09:07:10;;;;;;;;;;;;;;;8.60;100.00;100515.41;4989889;28;20041;-70
2024/02/14 09:09:37;;;;;;;1.05;0.90;;;;;;;8.60;100.00;100512.84;4989592;28;19921;-70
2024/02/14 09:12:03;;;;;;;1.70;1.08;;;;;;;8.62;100.00;100512.09;4987614;28;20050;-69
2024/02/14 09:14:30;;;;;;;2.60;1.20;;;;;;;7.86;100.00;100389.44;4982834;28;20422;-69
2024/02/14 09:16:56;;;;;;;2.80;1.17;;;;;;;8.56;100.00;100515.28;5016469;28;20192;-68
2024/02/14 09:19:21;;;;;;;1.80;1.20;;;;;;;8.55;100.00;100510.09;4989900;28;20518;-71
2024/02/14 09:21:47;;;;;;;2.83;1.42;;;;;;;8.55;100.00;100513.53;4989092;28;20125;-69
2024/02/14 09:24:13;;;;;;;0.95;0.90;;;;;;;8.56;100.00;100515.28;4985025;28;20101;-67
2024/02/14 09:26:38;;;;;;;1.30;0.80;;;;;;;8.13;100.00;100446.38;4990330;28;20042;-69
2024/02/14 09:29:04;;;;;;;1.13;0.93;;;;;;;8.18;100.00;100454.34;4989514;28;20039;-69
2024/02/14 09:31:30;;;;;;;4.78;1.85;;;;;;;8.50;100.00;100504.72;4989755;28;20041;-69
2024/02/14 09:33:57;;;;;;;6.35;3.30;;;;;;;8.62;100.00;100514.66;4985871;28;20300;-71
2024/02/14 09:36:24;;;;;;;12.45;6.07;;;;;;;8.51;100.00;100490.16;5012382;28;20054;-70
2024/02/14 09:38:51;;;;;;;11.68;6.13;;;;;;;8.45;100.00;100484.69;4979956;28;20030;-70
2024/02/14 09:41:36;;;;;;;8.45;3.78;;;;;;;8.73;100.00;100510.91;4989936;28;20505;-70
2024/02/14 09:44:01;;;;;;;8.45;4.07;;;;;;;8.74;100.00;100496.34;4986382;28;20053;-71
2024/02/14 09:46:30;;;;;;;12.95;5.05;;;;;;;8.55;100.00;100464.63;4994092;28;20026;-69
2024/02/14 09:48:59;;;;;;;10.40;4.43;;;;;;;8.83;100.00;100499.31;4992197;28;20041;-70
2024/02/14 09:51:25;;;;;;;5.38;2.60;;;;;;;8.79;100.00;100491.41;4992862;28;20030;-69
2024/02/14 09:53:53;;;;;;;6.25;2.80;;;;;;;8.78;100.00;100498.22;4992998;28;20528;-69
2024/02/14 09:56:22;;;;;;;3.72;1.85;;;;;;;8.89;100.00;100491.84;4992960;28;20482;-70
2024/02/14 09:58:56;;;;;;;4.37;1.70;;;;;;;8.96;100.00;100507.56;4994904;28;20034;-68
2024/02/14 10:01:25;;;;;;;14.52;2.67;;;;;;;8.99;100.00;100502.56;4992770;28;20030;-71
2024/02/14 10:03:51;;;;;;;7.80;4.00;;;;;;;8.62;100.00;100424.59;4985785;28;20030;-69
2024/02/14 10:06:21;;;;;;;5.50;2.50;;;;;;;9.04;100.00;100499.38;4993429;28;20041;-72
2024/02/14 10:08:48;;;;;;;8.60;2.97;;;;;;;9.09;100.00;100511.59;4990552;28;20046;-71
2024/02/14 10:11:18;;;;;;;5.00;2.28;;;;;;;8.75;100.00;100426.03;4988520;28;20076;-70
2024/02/14 10:13:47;;;;;;;3.88;1.95;;;;;;;9.02;100.00;100474.38;4993166;28;20074;-70
2024/02/14 10:16:14;;;;;;;3.50;1.70;;;;;;;9.18;100.00;100487.13;4992737;28;20168;-69
2024/02/14 10:18:40;;;;;;;4.75;2.10;;;;;;;9.18;100.00;100478.50;4991758;28;20107;-70
2024/02/14 10:21:06;;;;;;;5.95;1.88;;;;;;;9.23;100.00;100495.91;4992298;28;20703;-70
2024/02/14 10:23:32;;;;;;;8.57;3.55;;;;;;;8.87;100.00;100433.41;4987997;28;20034;-69
2024/02/14 10:25:58;;;;;;;5.88;2.70;;;;;;;9.31;100.00;100500.50;5014898;28;20045;-71
2024/02/14 10:28:25;;;;;;;1.70;1.00;;;;;;;9.33;100.00;100498.88;4992288;28;20038;-70
2024/02/14 10:30:52;;;;;;;5.53;1.85;;;;;;;8.98;100.00;100439.88;4992146;28;20121;-71
2024/02/14 10:33:19;;;;;;;1.50;0.98;;;;;;;9.26;100.00;100496.84;4976850;28;20042;-69
2024/02/14 10:35:46;;;;;;;3.13;1.63;;;;;;;9.33;100.00;100515.22;4992843;28;20074;-70
2024/02/14 10:38:12;;;;;;;1.70;1.00;;;;;;;9.22;100.00;100499.31;4992368;28;20537;-72
2024/02/14 10:40:38;;;;;;;2.03;1.20;;;;;;;9.23;100.00;100508.81;4992096;28;20148;-70
2024/02/14 10:43:09;;;;;;;1.13;0.93;;;;;;;9.04;100.00;100478.78;4991338;28;20030;-71
2024/02/14 10:45:37;;;;;;;1.00;0.90;;;;;;;9.14;100.00;100507.53;4989062;28;20026;-72
2024/02/14 10:48:06;;;;;;;1.93;0.90;;;;;;;9.19;100.00;100499.16;4991576;28;20129;-70
2024/02/14 10:50:35;;;;;;;1.58;1.10;;;;;;;9.30;100.00;100507.34;4992115;28;20820;-69
2024/02/14 10:53:05;;;;;;;1.40;0.80;;;;;;;9.20;100.00;100497.47;4992176;28;20054;-71
2024/02/14 10:55:32;;;;;;;0.55;0.55;;;;;;;9.29;100.00;100507.28;4991714;28;20034;-70
2024/02/14 10:57:59;;;;;;;0.90;0.80;;;;;;;9.21;100.00;100505.25;4992116;28;20407;-68
2024/02/14 11:00:25;;;;;;;0.65;0.65;;;;;;;9.14;100.00;100505.81;4991921;28;20513;-70
2024/02/14 11:02:52;;;;;;;1.02;0.80;;;;;;;8.66;100.00;100428.19;4991993;28;20038;-70
2024/02/14 11:05:23;;;;;;;11.57;4.35;;;;;;;9.19;100.00;100506.88;4982073;28;20046;-68
2024/02/14 11:07:52;;;;;;;5.95;2.40;;;;;;;9.19;100.00;100518.91;4990938;28;20532;-70
2024/02/14 11:10:20;;;;;;;8.95;3.88;;;;;;;9.22;100.00;100503.56;4991536;28;20046;-70
2024/02/14 11:12:47;;;;;;;6.75;2.10;;;;;;;9.15;100.00;100502.44;5015182;28;20832;-72
2024/02/14 11:15:18;;;;;;;7.85;3.95;;;;;;;8.88;100.00;100456.66;4977538;28;20046;-69
2024/02/14 11:17:44;;;;;;;5.10;2.75;;;;;;;9.06;100.00;100489.16;4965201;28;20042;-68
2024/02/14 11:20:14;;;;;;;4.95;1.73;;;;;;;9.19;100.00;100493.13;4991396;28;20058;-70